Johnsonville, New York
Current Conditions -  °F | °C
As of 5:16 AM on Thursday 18 Dec 2014 (Local Time) from KDDH Reporting Station
Light Snow Light Snow  
Wind Chill: 23°   Ceiling: 900
Heat Index: 32°   Visibility: 2mi
Dew Point: 28°   Wind: 12mph
Humidity: 85%   Direction: 230°SW
Pressure: 29.8"   Gusts: 18mph
Location:  42.91°N, 73.51°W
Report Text: KDDH 181016Z AUTO 23010G16KT 2SM -SN BR BKN009 OVC019 00/M02 A2980 RMK AO2 P0000 T00001022
Loading
Personal Weather Stations






























Interactive Weather Map New forecast layout! Learn more

10-Day Weather Forecast

Advertisements
Track Severe Weather on mobile